Time;durP1;ratioP1;P1;durP2;ratioP2;P2;SDS_P1;SDS_P2;PMS_P1;PMS_P2;Temp;Humidity;BMP_temperature;BMP_pressure;BME280_temperature;BME280_humidity;BME280_pressure;Samples;Min_cycle;Max_cycle;Signal;HPM_P1;HPM_P2
2023/04/05 00:00:55;;;;;;;27.50;14.90;;;;;;;-2.21;64.90;97586.98;108812;1252;94618;-72
2023/04/05 00:03:24;;;;;;;26.00;15.90;;;;;;;-2.19;64.97;97587.34;108778;1252;102404;-71
2023/04/05 00:05:53;;;;;;;26.00;15.00;;;;;;;-2.18;65.15;97586.59;108727;1252;101137;-71
2023/04/05 00:08:25;;;;;;;25.50;16.20;;;;;;;-2.20;65.28;97587.24;108737;1252;100333;-72
2023/04/05 00:10:54;;;;;;;30.10;15.80;;;;;;;-2.22;65.38;97582.45;108750;1252;94442;-72
2023/04/05 00:13:22;;;;;;;27.80;17.60;;;;;;;-2.22;65.38;97579.15;108768;1252;94641;-72
2023/04/05 00:15:50;;;;;;;24.00;16.20;;;;;;;-2.21;65.28;97578.52;108789;1252;102171;-72
2023/04/05 00:21:00;;;;;;;22.20;12.90;;;;;;;-2.23;65.44;97571.79;108328;1257;99994;-72
2023/04/05 00:23:28;;;;;;;34.00;19.00;;;;;;;-2.26;65.56;97569.38;108082;1257;94297;-72
2023/04/05 00:25:56;;;;;;;34.90;18.40;;;;;;;-2.26;65.63;97568.89;108229;1257;94759;-72
2023/04/05 00:28:24;;;;;;;30.20;18.00;;;;;;;-2.28;65.66;97567.11;108248;1257;101928;-71
2023/04/05 00:30:55;;;;;;;25.30;15.50;;;;;;;-2.29;65.78;97569.69;108308;1257;100646;-71
2023/04/05 00:33:23;;;;;;;25.90;16.40;;;;;;;-2.28;65.83;97569.77;108254;1257;100327;-71
2023/04/05 00:35:51;;;;;;;25.30;16.30;;;;;;;-2.26;65.72;97568.16;108296;1257;94482;-70
2023/04/05 00:38:19;;;;;;;35.80;18.60;;;;;;;-2.24;65.86;97568.55;108298;1257;94791;-72
2023/04/05 00:40:47;;;;;;;29.30;17.10;;;;;;;-2.22;65.91;97566.64;108296;1257;101611;-72
2023/04/05 00:43:15;;;;;;;24.90;15.50;;;;;;;-2.24;66.01;97564.30;108298;1257;101423;-72
2023/04/05 00:45:43;;;;;;;31.00;19.00;;;;;;;-2.27;66.07;97562.07;108296;1257;99765;-71
2023/04/05 00:48:12;;;;;;;31.20;19.50;;;;;;;-2.30;66.10;97561.66;108125;1259;94366;-72
2023/04/05 00:50:40;;;;;;;32.60;19.80;;;;;;;-2.32;66.12;97566.45;108198;1257;95244;-71
2023/04/05 00:53:09;;;;;;;32.20;19.20;;;;;;;-2.31;66.22;97561.91;108480;1253;102254;-71
2023/04/05 00:55:37;;;;;;;30.50;20.00;;;;;;;-2.28;66.11;97562.48;108564;1252;101241;-72
2023/04/05 00:58:05;;;;;;;36.20;22.80;;;;;;;-2.24;66.15;97565.91;108796;1252;99955;-72
2023/04/05 01:00:33;;;;;;;31.80;19.90;;;;;;;-2.25;66.22;97565.14;108794;1252;94250;-72
2023/04/05 01:03:04;;;;;;;34.40;20.80;;;;;;;-2.31;66.24;97560.02;108832;1252;94663;-71
2023/04/05 01:05:40;;;;;;;37.20;20.10;;;;;;;-2.31;66.27;97558.06;108837;1252;102263;-71
2023/04/05 01:08:22;;;;;;;34.90;20.90;;;;;;;-2.29;66.37;97562.77;108847;1253;101511;-71
2023/04/05 01:10:57;;;;;;;26.10;15.90;;;;;;;-2.28;66.40;97562.89;108802;1252;100080;-70
2023/04/05 01:13:26;;;;;;;36.20;21.60;;;;;;;-2.36;66.42;97565.86;108782;1252;94230;-71
2023/04/05 01:15:54;;;;;;;35.00;21.90;;;;;;;-2.41;66.41;97566.44;108864;1252;94696;-70
2023/04/05 01:18:23;;;;;;;34.40;21.30;;;;;;;-2.43;66.49;97560.80;108848;1252;102456;-71
2023/04/05 01:21:10;;;;;;;33.00;20.30;;;;;;;-2.43;66.56;97559.25;108837;1252;101490;-72
2023/04/05 01:23:53;;;;;;;35.30;22.20;;;;;;;-2.40;66.63;97559.34;108865;1251;99544;-72
2023/04/05 01:26:43;;;;;;;35.70;21.50;;;;;;;-2.40;66.65;97558.05;108819;1253;94196;-71
2023/04/05 01:29:24;;;;;;;31.30;19.90;;;;;;;-2.41;66.84;97557.08;108821;1252;94689;-72
2023/04/05 01:32:05;;;;;;;33.70;20.90;;;;;;;-2.42;66.97;97557.55;108845;1253;102391;-71
2023/04/05 01:34:40;;;;;;;34.50;21.10;;;;;;;-2.45;67.02;97558.90;108817;1252;101362;-70
2023/04/05 01:37:12;;;;;;;33.60;20.50;;;;;;;-2.48;67.08;97557.87;108798;1252;98525;-72
2023/04/05 01:39:41;;;;;;;32.80;20.30;;;;;;;-2.48;67.11;97555.80;108790;1252;95622;-72
2023/04/05 01:42:10;;;;;;;32.80;19.80;;;;;;;-2.49;66.99;97549.34;108755;1252;96500;-72
2023/04/05 01:44:38;;;;;;;32.90;20.70;;;;;;;-2.55;67.12;97547.70;108549;1253;103651;-70
2023/04/05 01:47:06;;;;;;;34.60;21.40;;;;;;;-2.57;67.28;97551.89;108668;1252;101715;-72
2023/04/05 01:49:34;;;;;;;34.80;21.90;;;;;;;-2.56;67.42;97553.45;108707;1252;100148;-72
2023/04/05 01:52:02;;;;;;;29.10;19.60;;;;;;;-2.55;67.41;97553.91;108524;1252;95787;-72
2023/04/05 01:54:30;;;;;;;33.20;19.80;;;;;;;-2.57;67.37;97547.65;108769;1251;96034;-72
2023/04/05 01:56:58;;;;;;;33.50;19.60;;;;;;;-2.57;67.24;97546.65;108824;1252;103758;-72
2023/04/05 01:59:26;;;;;;;31.80;19.70;;;;;;;-2.57;67.37;97548.91;108738;1252;101376;-71
2023/04/05 02:01:54;;;;;;;37.90;22.00;;;;;;;-2.57;67.37;97544.15;108791;1252;99634;-71
2023/04/05 02:04:22;;;;;;;35.10;21.10;;;;;;;-2.55;67.26;97542.36;108790;1252;95543;-72
2023/04/05 02:06:50;;;;;;;28.10;19.30;;;;;;;-2.54;67.24;97541.80;108763;1252;96049;-71
2023/04/05 02:09:18;;;;;;;31.60;19.10;;;;;;;-2.55;67.24;97538.35;108740;1251;103603;-73
2023/04/05 02:11:47;;;;;;;33.00;20.30;;;;;;;-2.56;67.35;97536.79;108605;1253;101287;-71
2023/04/05 02:14:15;;;;;;;31.80;18.30;;;;;;;-2.56;67.47;97544.05;108740;1252;100087;-70
2023/04/05 02:16:43;;;;;;;33.10;19.40;;;;;;;-2.56;67.55;97547.44;108757;1252;95927;-70
2023/04/05 02:19:12;;;;;;;30.40;19.80;;;;;;;-2.57;67.50;97543.64;108718;1252;95998;-71
2023/04/05 02:21:40;;;;;;;34.00;21.10;;;;;;;-2.57;67.70;97545.18;108757;1252;103455;-71
2023/04/05 02:24:08;;;;;;;34.30;19.50;;;;;;;-2.57;67.76;97547.34;108786;1252;101007;-73
2023/04/05 02:26:36;;;;;;;29.90;19.10;;;;;;;-2.65;67.70;97548.02;108722;1252;99875;-72
2023/04/05 02:29:04;;;;;;;26.60;18.10;;;;;;;-2.68;67.77;97549.67;108690;1252;95579;-72
2023/04/05 02:31:32;;;;;;;30.40;19.00;;;;;;;-2.72;67.70;97545.93;108751;1252;96103;-70
2023/04/05 02:34:01;;;;;;;32.40;19.60;;;;;;;-2.74;67.62;97543.41;108791;1252;103641;-73
2023/04/05 02:36:29;;;;;;;26.70;17.90;;;;;;;-2.73;67.71;97542.08;108771;1251;101281;-71
2023/04/05 02:38:57;;;;;;;32.50;19.90;;;;;;;-2.72;67.65;97542.06;108781;1252;100115;-72
2023/04/05 02:41:25;;;;;;;32.20;20.00;;;;;;;-2.71;67.64;97540.73;108641;1253;95576;-72
2023/04/05 02:43:54;;;;;;;33.20;20.70;;;;;;;-2.70;67.57;97537.50;108776;1252;96008;-71
2023/04/05 02:46:22;;;;;;;29.70;20.20;;;;;;;-2.71;67.56;97537.02;108622;1253;112286;-72
2023/04/05 02:48:50;;;;;;;34.20;20.80;;;;;;;-2.75;67.62;97535.08;108715;1252;101343;-72
2023/04/05 02:51:18;;;;;;;32.60;20.00;;;;;;;-2.78;67.58;97534.23;108746;1252;99983;-71
2023/04/05 02:53:47;;;;;;;36.50;21.60;;;;;;;-2.78;67.45;97533.92;108595;1251;95662;-72
2023/04/05 02:56:15;;;;;;;31.10;18.30;;;;;;;-2.79;67.54;97535.94;108744;1252;96101;-72
2023/04/05 02:58:43;;;;;;;31.40;19.50;;;;;;;-2.78;67.51;97538.02;108788;1252;103507;-72
2023/04/05 03:01:11;;;;;;;30.30;20.10;;;;;;;-2.80;67.61;97538.86;108754;1251;101542;-71
2023/04/05 03:03:40;;;;;;;35.40;20.50;;;;;;;-2.83;67.64;97541.89;108780;1252;100165;-72
2023/04/05 03:06:09;;;;;;;31.90;20.20;;;;;;;-2.84;67.63;97540.59;108664;1253;95708;-73
2023/04/05 03:08:42;;;;;;;28.70;19.20;;;;;;;-2.88;67.69;97542.00;108740;1252;95998;-72
2023/04/05 03:11:11;;;;;;;28.40;18.30;;;;;;;-2.92;67.78;97544.20;108792;1252;103706;-71
2023/04/05 03:13:39;;;;;;;29.00;19.10;;;;;;;-2.95;67.75;97541.99;108773;1251;101844;-72
2023/04/05 03:16:08;;;;;;;30.80;18.40;;;;;;;-2.98;67.85;97542.64;108638;1253;98741;-73
2023/04/05 03:18:36;;;;;;;28.30;18.90;;;;;;;-3.03;67.94;97545.67;108557;1252;95626;-73
2023/04/05 03:21:04;;;;;;;27.50;18.10;;;;;;;-3.06;67.92;97546.80;108783;1252;96012;-73
2023/04/05 03:23:33;;;;;;;30.90;18.70;;;;;;;-3.07;67.94;97545.44;108792;1252;103721;-72
2023/04/05 03:26:03;;;;;;;28.50;17.90;;;;;;;-3.08;67.97;97546.96;108794;1252;101354;-72
2023/04/05 03:28:32;;;;;;;30.50;19.20;;;;;;;-3.13;67.92;97546.66;108724;1252;99876;-73
2023/04/05 03:31:00;;;;;;;28.40;18.00;;;;;;;-3.16;67.95;97550.44;108645;1253;95632;-73
2023/04/05 03:33:28;;;;;;;33.20;18.40;;;;;;;-3.14;68.04;97543.81;108701;1252;96568;-72
2023/04/05 03:35:56;;;;;;;29.40;18.40;;;;;;;-3.13;67.98;97546.46;108783;1252;103543;-71
2023/04/05 03:38:24;;;;;;;29.30;17.60;;;;;;;-3.15;68.01;97552.48;108771;1252;101503;-73
2023/04/05 03:40:52;;;;;;;25.60;17.90;;;;;;;-3.22;68.11;97549.64;108783;1251;108355;-73
2023/04/05 03:43:20;;;;;;;30.10;18.10;;;;;;;-3.26;68.16;97550.85;108744;1252;95565;-73
2023/04/05 03:45:48;;;;;;;32.10;18.50;;;;;;;-3.24;68.26;97550.73;108786;1252;96473;-72
2023/04/05 03:48:19;;;;;;;29.30;18.60;;;;;;;-3.21;68.17;97550.66;108771;1252;103956;-72
2023/04/05 03:50:47;;;;;;;26.70;16.60;;;;;;;-3.19;68.13;97552.28;108758;1252;101263;-72
2023/04/05 03:53:17;;;;;;;24.40;16.40;;;;;;;-3.17;68.07;97551.74;108718;1251;99741;-73
2023/04/05 03:55:48;;;;;;;29.80;17.60;;;;;;;-3.16;67.93;97552.88;108752;1252;95589;-73
2023/04/05 03:58:17;;;;;;;25.80;16.80;;;;;;;-3.15;67.95;97553.20;108720;1252;96010;-73
2023/04/05 04:00:45;;;;;;;25.00;16.30;;;;;;;-3.14;68.03;97551.98;108750;1252;103650;-72
2023/04/05 04:03:13;;;;;;;28.80;18.40;;;;;;;-3.17;68.13;97550.11;108762;1252;101694;-71
2023/04/05 04:05:42;;;;;;;29.50;18.20;;;;;;;-3.27;68.15;97546.02;108707;1252;99512;-71
2023/04/05 04:08:10;;;;;;;30.80;18.10;;;;;;;-3.34;68.36;97546.73;108707;1252;95661;-73
2023/04/05 04:10:38;;;;;;;31.60;19.00;;;;;;;-3.34;68.61;97547.75;108736;1252;96016;-71
2023/04/05 04:13:06;;;;;;;29.80;18.50;;;;;;;-3.29;68.54;97551.98;108765;1251;103458;-71
2023/04/05 04:15:34;;;;;;;35.70;20.80;;;;;;;-3.26;68.46;97551.73;108799;1252;101512;-73
2023/04/05 04:18:02;;;;;;;31.60;21.00;;;;;;;-3.22;68.49;97554.41;108593;1253;100096;-72
2023/04/05 04:20:30;;;;;;;35.20;23.40;;;;;;;-3.19;68.48;97554.94;108806;1251;95820;-72
2023/04/05 04:22:58;;;;;;;35.60;25.10;;;;;;;-3.18;68.52;97553.09;108695;1252;96017;-75
2023/04/05 04:25:31;;;;;;;35.60;25.40;;;;;;;-3.19;68.54;97557.31;108724;1252;103480;-72
2023/04/05 04:28:00;;;;;;;38.50;23.60;;;;;;;-3.20;68.45;97558.98;108817;1252;101301;-73
2023/04/05 04:30:28;;;;;;;34.70;23.70;;;;;;;-3.19;68.60;97561.79;108625;1253;100028;-72
2023/04/05 04:32:58;;;;;;;37.50;24.80;;;;;;;-3.19;68.62;97558.06;108732;1251;95793;-72
2023/04/05 04:35:29;;;;;;;157.00;79.90;;;;;;;-3.19;68.75;97558.73;108781;1252;95817;-71
2023/04/05 04:37:59;;;;;;;248.00;133.40;;;;;;;-3.21;68.82;97557.65;108793;1252;103545;-73
2023/04/05 04:40:37;;;;;;;185.90;100.80;;;;;;;-3.28;68.93;97561.21;108709;1252;101202;-71
2023/04/05 04:43:13;;;;;;;93.50;54.40;;;;;;;-3.36;69.00;97560.06;108725;1252;99811;-72
2023/04/05 04:45:41;;;;;;;58.80;34.40;;;;;;;-3.41;68.92;97561.06;108508;1252;95585;-71
2023/04/05 04:48:09;;;;;;;60.00;35.30;;;;;;;-3.40;69.01;97562.36;108771;1252;97601;-71
2023/04/05 04:50:38;;;;;;;96.30;55.60;;;;;;;-3.35;68.95;97562.44;108780;1252;104678;-72
2023/04/05 04:53:06;;;;;;;99.80;60.10;;;;;;;-3.35;68.90;97560.33;108682;1252;101263;-73
2023/04/05 04:55:35;;;;;;;107.90;65.40;;;;;;;-3.36;68.90;97560.44;108779;1251;98890;-71
2023/04/05 04:58:08;;;;;;;105.40;62.60;;;;;;;-3.35;69.04;97561.21;108811;1252;95976;-73
2023/04/05 05:00:40;;;;;;;75.30;45.80;;;;;;;-3.31;69.24;97564.82;108777;1252;96489;-71
2023/04/05 05:03:10;;;;;;;67.90;40.00;;;;;;;-3.27;69.19;97560.60;108744;1251;103755;-73
2023/04/05 05:05:50;;;;;;;59.40;36.80;;;;;;;-3.21;69.11;97561.20;108789;1252;101586;-71
2023/04/05 05:08:18;;;;;;;53.60;32.00;;;;;;;-3.16;69.15;97559.60;108551;1253;100407;-71
2023/04/05 05:10:46;;;;;;;47.60;30.00;;;;;;;-3.13;69.20;97560.54;108701;1252;95587;-71
2023/04/05 05:13:14;;;;;;;39.90;26.60;;;;;;;-3.11;69.25;97561.98;108773;1252;96298;-72
2023/04/05 05:15:42;;;;;;;42.10;25.80;;;;;;;-3.09;69.35;97562.02;108826;1252;103521;-71
2023/04/05 05:18:11;;;;;;;36.80;26.50;;;;;;;-3.12;69.45;97566.27;108833;1251;101514;-71
2023/04/05 05:20:40;;;;;;;41.50;26.90;;;;;;;-3.14;69.53;97566.46;108733;1252;100050;-72
2023/04/05 05:23:08;;;;;;;43.80;31.80;;;;;;;-3.12;69.62;97565.96;108738;1251;95593;-72
2023/04/05 05:25:36;;;;;;;48.80;30.40;;;;;;;-3.09;69.61;97569.73;108803;1253;96000;-72
2023/04/05 05:28:04;;;;;;;47.20;29.10;;;;;;;-3.05;69.65;97564.30;108770;1251;103614;-73
2023/04/05 05:30:33;;;;;;;39.20;27.20;;;;;;;-3.01;69.77;97560.63;108517;1252;101400;-73
2023/04/05 05:33:01;;;;;;;44.20;28.30;;;;;;;-2.99;69.67;97561.65;108746;1251;100019;-72
2023/04/05 05:35:29;;;;;;;46.10;28.40;;;;;;;-2.99;69.53;97560.63;108730;1252;95599;-75
2023/04/05 05:37:57;;;;;;;45.60;27.80;;;;;;;-3.02;69.56;97558.46;108581;1252;96039;-71
2023/04/05 05:40:26;;;;;;;49.30;29.60;;;;;;;-3.04;69.61;97559.87;108779;1252;103492;-71
2023/04/05 05:42:54;;;;;;;47.50;30.00;;;;;;;-3.02;69.69;97555.62;108775;1252;101987;-71
2023/04/05 05:45:22;;;;;;;50.00;30.70;;;;;;;-2.99;69.77;97550.40;108714;1252;98920;-71
2023/04/05 05:47:50;;;;;;;50.00;29.30;;;;;;;-2.95;69.73;97553.84;108746;1252;95598;-72
2023/04/05 05:50:19;;;;;;;45.90;29.00;;;;;;;-2.89;69.75;97553.89;108693;1252;96182;-72
2023/04/05 05:52:47;;;;;;;50.30;28.90;;;;;;;-2.82;69.65;97556.64;108775;1251;103500;-72
2023/04/05 05:55:15;;;;;;;44.70;27.50;;;;;;;-2.80;69.59;97557.86;108523;1253;101263;-72
2023/04/05 05:57:44;;;;;;;43.20;27.40;;;;;;;-2.78;69.67;97556.84;108701;1253;99941;-73
2023/04/05 06:00:12;;;;;;;50.40;29.40;;;;;;;-2.74;69.66;97555.61;108796;1252;95672;-72
2023/04/05 06:02:40;;;;;;;49.30;27.40;;;;;;;-2.68;69.49;97551.20;108760;1251;96030;-71
2023/04/05 06:05:09;;;;;;;39.60;23.80;;;;;;;-2.62;69.36;97550.33;108764;1252;103374;-71
2023/04/05 06:07:38;;;;;;;44.40;26.00;;;;;;;-2.55;69.13;97546.63;108759;1252;101077;-71
2023/04/05 06:10:07;;;;;;;44.10;26.10;;;;;;;-2.51;68.91;97543.90;108597;1251;100162;-72
2023/04/05 06:12:35;;;;;;;47.10;24.20;;;;;;;-2.51;68.90;97546.17;108738;1252;95829;-71
2023/04/05 06:15:03;;;;;;;35.20;21.10;;;;;;;-2.46;68.83;97539.75;108813;1253;96036;-71
2023/04/05 06:17:33;;;;;;;28.10;17.50;;;;;;;-2.38;68.64;97541.02;108647;1252;103456;-71
2023/04/05 06:20:01;;;;;;;32.20;18.70;;;;;;;-2.32;68.28;97539.56;108838;1251;109858;-72
2023/04/05 06:22:29;;;;;;;29.90;18.10;;;;;;;-2.27;68.14;97542.36;108768;1252;99865;-72
2023/04/05 06:24:57;;;;;;;26.30;16.70;;;;;;;-2.23;67.90;97539.73;108700;1252;95889;-72
2023/04/05 06:27:25;;;;;;;29.10;18.10;;;;;;;-2.18;67.80;97537.50;108723;1252;96422;-71
2023/04/05 06:29:54;;;;;;;33.40;19.90;;;;;;;-2.13;67.90;97534.83;108781;1251;103402;-71
2023/04/05 06:32:22;;;;;;;31.60;18.70;;;;;;;-2.12;67.69;97535.09;108788;1251;101779;-71
2023/04/05 06:34:50;;;;;;;35.10;19.20;;;;;;;-2.07;67.78;97537.18;108639;1252;99955;-72
2023/04/05 06:37:19;;;;;;;28.90;19.20;;;;;;;-1.99;67.66;97537.84;108748;1251;95581;-71
2023/04/05 06:39:47;;;;;;;32.50;18.50;;;;;;;-1.93;67.43;97535.70;108804;1252;96000;-72
2023/04/05 06:42:15;;;;;;;31.20;17.90;;;;;;;-1.87;67.21;97533.84;108781;1252;103443;-72
2023/04/05 06:44:43;;;;;;;25.10;14.10;;;;;;;-1.80;66.90;97532.88;108773;1252;101082;-71
2023/04/05 06:47:12;;;;;;;24.40;14.40;;;;;;;-1.72;66.55;97534.15;108746;1251;99591;-72
2023/04/05 06:49:40;;;;;;;28.70;15.00;;;;;;;-1.65;66.34;97531.70;108793;1252;95596;-71
2023/04/05 06:52:08;;;;;;;24.00;11.00;;;;;;;-1.55;66.07;97531.27;108571;1252;96023;-71
2023/04/05 06:54:39;;;;;;;23.00;11.60;;;;;;;-1.48;65.35;97533.13;108521;1252;103367;-72
2023/04/05 06:57:07;;;;;;;21.00;13.10;;;;;;;-1.51;64.93;97530.67;108757;1253;101341;-72
2023/04/05 06:59:35;;;;;;;21.50;12.10;;;;;;;-1.48;65.28;97527.80;108743;1251;99984;-71
2023/04/05 07:02:03;;;;;;;23.10;11.30;;;;;;;-1.40;65.32;97528.09;108742;1253;95548;-70
2023/04/05 07:04:35;;;;;;;27.70;15.40;;;;;;;-1.29;65.46;97524.89;108602;1253;96065;-72
2023/04/05 07:07:04;;;;;;;18.30;11.80;;;;;;;-1.19;65.45;97525.20;108812;1251;103510;-70
2023/04/05 07:09:33;;;;;;;27.70;16.60;;;;;;;-1.11;65.19;97525.36;108748;1252;101023;-72
2023/04/05 07:12:05;;;;;;;29.10;16.60;;;;;;;-1.03;65.07;97525.75;108770;1252;99579;-71
2023/04/05 07:14:36;;;;;;;26.00;16.30;;;;;;;-0.92;65.04;97524.60;108697;1252;95586;-71
2023/04/05 07:17:07;;;;;;;26.80;15.30;;;;;;;-0.84;64.45;97527.05;108814;1252;96184;-71
2023/04/05 07:19:35;;;;;;;20.80;13.60;;;;;;;-0.78;64.23;97528.13;108785;1252;103469;-71
2023/04/05 07:22:03;;;;;;;27.40;14.40;;;;;;;-0.69;64.32;97526.73;108666;1251;101489;-71
2023/04/05 07:24:31;;;;;;;25.70;14.80;;;;;;;-0.57;64.13;97531.66;108629;1252;99317;-71
2023/04/05 07:27:01;;;;;;;23.10;11.70;;;;;;;-0.49;63.59;97527.69;108778;1252;95888;-71
2023/04/05 07:29:29;;;;;;;16.00;10.90;;;;;;;-0.44;63.37;97525.27;108788;1252;97089;-71
2023/04/05 07:31:57;;;;;;;14.90;9.10;;;;;;;-0.30;63.42;97527.39;108676;1252;103303;-71
2023/04/05 07:34:26;;;;;;;15.30;9.10;;;;;;;-0.11;62.99;97525.68;108667;1253;100336;-71
2023/04/05 07:36:54;;;;;;;13.30;8.40;;;;;;;0.09;62.15;97525.17;108796;1253;98301;-70
2023/04/05 07:39:22;;;;;;;11.60;7.60;;;;;;;0.32;61.64;97521.39;108784;1252;95572;-71
2023/04/05 07:41:50;;;;;;;13.00;7.60;;;;;;;0.72;61.44;97520.23;108469;1252;96142;-69
2023/04/05 07:44:18;;;;;;;13.20;8.00;;;;;;;1.09;60.95;97517.30;108669;1252;103462;-71
2023/04/05 07:46:47;;;;;;;19.20;9.10;;;;;;;1.32;60.32;97517.48;108636;1252;205158;-70
2023/04/05 07:49:15;;;;;;;20.80;9.80;;;;;;;1.56;60.46;97515.09;108743;1252;100436;-69
2023/04/05 07:51:43;;;;;;;17.30;7.80;;;;;;;1.96;60.06;97512.30;108851;1253;95535;-71
2023/04/05 07:54:11;;;;;;;11.80;7.90;;;;;;;2.32;59.11;97511.84;108793;1253;95862;-72
2023/04/05 07:56:39;;;;;;;15.80;9.00;;;;;;;2.66;58.63;97509.35;108819;1252;103649;-71
2023/04/05 07:59:08;;;;;;;16.80;8.20;;;;;;;3.08;58.65;97508.31;108832;1253;101724;-72
2023/04/05 08:01:36;;;;;;;10.00;6.30;;;;;;;3.54;58.31;97510.52;108826;1252;100141;-71
2023/04/05 08:04:04;;;;;;;8.80;5.40;;;;;;;3.99;57.25;97507.34;108790;1253;95610;-72
2023/04/05 08:06:32;;;;;;;10.10;6.10;;;;;;;4.28;56.27;97505.61;108536;1253;96608;-72
2023/04/05 08:09:02;;;;;;;8.70;5.70;;;;;;;4.57;56.13;97500.73;108867;1252;103743;-71
2023/04/05 08:11:30;;;;;;;9.00;4.80;;;;;;;4.91;55.30;97500.38;108877;1251;101099;-70
2023/04/05 08:13:59;;;;;;;9.70;5.50;;;;;;;5.03;54.79;97499.94;108802;1251;99817;-72
2023/04/05 08:16:28;;;;;;;13.90;6.40;;;;;;;5.15;54.30;97501.26;108832;1252;95541;-71
2023/04/05 08:18:56;;;;;;;7.80;4.90;;;;;;;5.26;53.97;97500.83;108893;1251;95539;-71
2023/04/05 08:21:24;;;;;;;8.00;5.00;;;;;;;5.14;53.21;97499.38;108869;1252;103724;-71
2023/04/05 08:23:52;;;;;;;12.10;4.90;;;;;;;5.21;52.35;97500.14;108888;1252;101354;-72
2023/04/05 08:26:20;;;;;;;8.50;5.00;;;;;;;5.15;51.87;97494.86;108643;1252;99847;-71
2023/04/05 08:28:48;;;;;;;8.50;3.70;;;;;;;5.03;51.73;97496.39;108763;1252;95588;-71
2023/04/05 08:31:16;;;;;;;7.80;4.50;;;;;;;4.81;51.87;97495.02;108894;1253;95567;-72
2023/04/05 08:33:45;;;;;;;8.70;3.90;;;;;;;4.79;51.54;97494.67;108761;1251;103174;-70
2023/04/05 08:36:13;;;;;;;5.40;3.40;;;;;;;4.92;51.65;97494.46;108823;1252;101446;-71
2023/04/05 08:38:41;;;;;;;9.00;5.20;;;;;;;4.78;51.60;97500.81;108804;1251;99690;-71
2023/04/05 08:41:19;;;;;;;9.00;5.30;;;;;;;4.75;51.81;97502.09;108809;1252;95591;-71
2023/04/05 08:44:01;;;;;;;5.90;3.80;;;;;;;4.67;51.45;97501.02;108850;1251;96430;-71
2023/04/05 08:46:32;;;;;;;5.00;3.70;;;;;;;4.66;50.91;97501.45;108664;1252;103498;-71
2023/04/05 08:49:04;;;;;;;4.90;3.30;;;;;;;4.69;50.21;97500.94;108847;1251;101242;-71
2023/04/05 08:51:37;;;;;;;5.00;3.60;;;;;;;4.49;49.75;97494.48;108802;1252;99883;-71
2023/04/05 08:54:06;;;;;;;6.00;3.80;;;;;;;4.31;50.29;97497.05;108827;1251;95574;-71
2023/04/05 08:56:35;;;;;;;7.30;3.50;;;;;;;4.22;50.85;97496.11;108881;1253;95751;-71
2023/04/05 08:59:06;;;;;;;10.00;4.10;;;;;;;4.17;50.95;97494.37;108796;1253;102307;-71
2023/04/05 09:01:39;;;;;;;6.20;3.90;;;;;;;4.28;51.24;97492.25;108877;1251;101448;-71
2023/04/05 09:04:09;;;;;;;;;;;;;;;4.66;51.12;97484.56;108849;1252;99869;-71
2023/04/05 09:06:38;;;;;;;4.90;3.30;;;;;;;4.72;50.41;97482.77;108838;1252;95545;-70
2023/04/05 09:09:07;;;;;;;10.00;3.40;;;;;;;5.01;50.73;97483.72;108864;1251;95697;-71
2023/04/05 09:11:36;;;;;;;11.80;4.30;;;;;;;5.52;50.47;97480.85;108863;1254;103607;-71
2023/04/05 09:14:05;;;;;;;4.80;3.20;;;;;;;5.76;49.89;97483.27;108840;1252;101107;-71
2023/04/05 09:16:41;;;;;;;5.10;3.50;;;;;;;5.98;49.44;97480.19;108885;1253;99984;-73
2023/04/05 09:19:10;;;;;;;6.50;3.90;;;;;;;6.32;49.74;97478.44;108826;1252;95600;-71
2023/04/05 09:21:58;;;;;;;10.80;4.80;;;;;;;6.71;49.67;97481.70;108860;1252;95883;-71
2023/04/05 09:24:40;;;;;;;13.30;6.90;;;;;;;7.13;49.00;97480.42;108877;1251;103643;-71
2023/04/05 09:27:14;;;;;;;13.00;7.00;;;;;;;7.16;47.96;97481.05;108555;1253;100963;-71
2023/04/05 09:29:44;;;;;;;11.50;5.90;;;;;;;6.85;47.68;97479.58;108838;1252;99451;-71
2023/04/05 09:32:14;;;;;;;8.90;5.80;;;;;;;6.46;47.57;97479.77;108525;1253;95780;-72
2023/04/05 09:34:43;;;;;;;10.10;5.00;;;;;;;6.10;47.52;97482.87;108676;1252;95934;-71
2023/04/05 09:37:13;;;;;;;10.90;6.00;;;;;;;5.78;47.31;97482.48;108850;1252;103718;-71
2023/04/05 09:39:41;;;;;;;10.30;5.60;;;;;;;5.75;47.87;97477.89;108816;1252;101481;-71
2023/04/05 09:42:12;;;;;;;11.20;6.80;;;;;;;5.78;48.49;97474.95;108844;1252;100017;-71
2023/04/05 09:44:50;;;;;;;11.10;7.30;;;;;;;5.75;48.07;97473.52;108837;1252;95532;-70
2023/04/05 09:47:19;;;;;;;8.90;5.50;;;;;;;5.69;47.73;97473.16;108886;1251;95604;-72
2023/04/05 09:49:48;;;;;;;7.90;4.80;;;;;;;5.44;47.16;97473.98;108882;1252;102563;-72
2023/04/05 09:52:27;;;;;;;7.10;4.50;;;;;;;5.10;47.34;97478.98;108863;1252;101545;-71
2023/04/05 09:54:57;;;;;;;9.10;4.90;;;;;;;4.91;47.32;97474.58;108834;1253;100195;-70
2023/04/05 09:57:29;;;;;;;7.70;4.70;;;;;;;4.72;47.56;97477.92;108841;1252;95598;-71
2023/04/05 09:59:57;;;;;;;7.40;5.70;;;;;;;4.59;47.28;97477.44;108885;1251;95973;-71
2023/04/05 10:02:35;;;;;;;7.60;5.20;;;;;;;4.41;47.98;97476.02;108889;1252;103774;-71
2023/04/05 10:05:12;;;;;;;9.00;4.70;;;;;;;4.39;47.72;97472.41;108682;1251;100129;-71
2023/04/05 10:07:44;;;;;;;12.80;5.10;;;;;;;4.33;47.18;97471.70;108865;1251;99990;-71
2023/04/05 10:10:15;;;;;;;7.40;4.60;;;;;;;4.30;47.94;97470.81;108814;1251;95610;-71
2023/04/05 10:12:44;;;;;;;8.50;5.10;;;;;;;4.49;48.30;97466.82;108359;1252;95892;-71
2023/04/05 10:15:13;;;;;;;8.70;5.60;;;;;;;4.82;47.64;97462.45;108656;1252;103380;-72
2023/04/05 10:17:52;;;;;;;9.60;5.40;;;;;;;4.91;47.53;97461.54;108881;1253;101245;-71
2023/04/05 10:20:24;;;;;;;9.50;5.50;;;;;;;4.93;47.77;97466.31;108854;1251;100110;-71
2023/04/05 10:22:52;;;;;;;8.80;4.90;;;;;;;5.01;47.87;97467.14;108819;1252;95535;-70
2023/04/05 10:25:36;;;;;;;7.30;4.60;;;;;;;5.04;47.51;97466.63;108845;1252;95632;-71
2023/04/05 10:28:15;;;;;;;7.60;5.30;;;;;;;5.02;47.38;97466.53;108888;1252;103408;-70
2023/04/05 10:30:48;;;;;;;11.70;5.90;;;;;;;4.99;47.32;97465.11;108839;1253;101251;-71
2023/04/05 10:33:40;;;;;;;11.80;5.60;;;;;;;4.89;47.07;97465.20;108845;1252;100023;-71
2023/04/05 10:36:27;;;;;;;9.10;5.80;;;;;;;4.65;46.84;97465.56;108807;1252;95544;-71
2023/04/05 10:39:04;;;;;;;9.40;5.30;;;;;;;4.44;47.23;97465.42;108853;1252;95888;-71
2023/04/05 10:41:36;;;;;;;8.30;5.70;;;;;;;4.33;47.17;97464.21;108821;1252;103539;-70
2023/04/05 10:44:05;;;;;;;8.00;5.70;;;;;;;4.09;47.07;97466.73;108887;1253;101364;-72
2023/04/05 10:46:34;;;;;;;11.40;5.80;;;;;;;3.86;47.35;97467.86;108900;1253;99901;-70
2023/04/05 10:49:34;;;;;;;10.00;6.10;;;;;;;3.65;47.94;97465.57;108809;1251;95580;-71
2023/04/05 10:52:06;;;;;;;10.60;5.40;;;;;;;3.59;47.73;97466.73;108829;1252;95619;-71
2023/04/05 10:54:37;;;;;;;8.60;5.20;;;;;;;3.68;47.70;97467.37;108891;1253;103183;-71
2023/04/05 10:57:07;;;;;;;10.40;5.80;;;;;;;3.83;47.69;97464.45;108834;1252;101266;-72
2023/04/05 10:59:40;;;;;;;14.10;6.10;;;;;;;4.00;48.06;97465.18;108800;1252;99589;-71
2023/04/05 11:02:09;;;;;;;12.10;6.50;;;;;;;4.40;48.86;97459.27;108818;1253;95798;-71
2023/04/05 11:04:40;;;;;;;7.70;6.00;;;;;;;4.70;47.92;97458.41;108832;1253;95682;-71
2023/04/05 11:07:13;;;;;;;11.30;6.00;;;;;;;4.65;47.36;97455.79;108866;1252;103486;-71
2023/04/05 11:10:01;;;;;;;10.20;5.80;;;;;;;4.59;46.90;97462.00;108843;1253;101033;-72
2023/04/05 11:12:48;;;;;;;10.40;5.80;;;;;;;4.64;47.13;97463.02;108837;1253;99508;-70
2023/04/05 11:15:28;;;;;;;11.50;6.10;;;;;;;4.64;47.20;97458.88;108814;1253;95587;-70
2023/04/05 11:18:03;;;;;;;13.50;6.10;;;;;;;4.56;46.58;97458.73;108800;1252;95598;-71
2023/04/05 11:20:44;;;;;;;10.00;5.60;;;;;;;4.50;46.61;97456.25;108888;1252;103574;-70
2023/04/05 11:23:15;;;;;;;10.30;6.50;;;;;;;4.76;46.83;97451.30;108718;1252;101754;-70
2023/04/05 11:26:07;;;;;;;11.70;6.70;;;;;;;5.19;46.34;97449.01;108893;1253;99065;-71
2023/04/05 11:28:40;;;;;;;11.80;6.70;;;;;;;5.47;46.07;97448.83;108245;1259;95778;-71